Time;durP1;ratioP1;P1;durP2;ratioP2;P2;SDS_P1;SDS_P2;PMS_P1;PMS_P2;Temp;Humidity;BMP_temperature;BMP_pressure;BME280_temperature;BME280_humidity;BME280_pressure;Samples;Min_cycle;Max_cycle;Signal;HPM_P1;HPM_P2
2022/05/09 00:00:29;;;;;;;7.77;4.03;;;13.90;1.00;;;;;;5034843;28;20170;-85
2022/05/09 00:02:55;;;;;;;9.80;3.57;;;14.00;1.00;;;;;;5034726;28;20627;-85
2022/05/09 00:05:24;;;;;;;9.80;3.47;;;13.80;1.00;;;;;;5034815;28;20179;-84
2022/05/09 00:07:50;;;;;;;11.80;3.73;;;13.80;1.00;;;;;;5034467;28;20257;-84
2022/05/09 00:10:19;;;;;;;9.57;4.13;;;13.70;1.00;;;;;;5033533;28;20733;-80
2022/05/09 00:12:45;;;;;;;10.37;4.00;;;13.70;1.00;;;;;;5034450;28;20166;-82
2022/05/09 00:15:13;;;;;;;10.93;4.17;;;13.70;1.00;;;;;;5034753;28;20650;-86
2022/05/09 00:17:38;;;;;;;11.23;4.73;;;13.60;1.00;;;;;;5034115;28;20240;-84
2022/05/09 00:20:05;;;;;;;8.90;3.97;;;13.50;1.00;;;;;;5038513;28;20190;-79
2022/05/09 00:22:43;;;;;;;9.03;4.37;;;13.60;1.00;;;;;;5056955;28;20247;-80
2022/05/09 00:25:08;;;;;;;9.67;4.10;;;13.50;1.00;;;;;;5056138;28;20176;-80
2022/05/09 00:27:34;;;;;;;8.10;4.17;;;13.50;1.00;;;;;;5042827;28;20176;-84
2022/05/09 00:30:00;;;;;;;11.37;4.03;;;13.50;1.00;;;;;;5039644;28;20704;-84
2022/05/09 00:32:25;;;;;;;8.53;4.10;;;13.50;1.00;;;;;;5036033;28;20700;-85
2022/05/09 00:34:57;;;;;;;10.83;4.23;;;13.60;1.00;;;;;;5034176;28;20172;-86
2022/05/09 00:37:23;;;;;;;10.37;4.37;;;13.40;1.00;;;;;;5034747;28;20206;-84
2022/05/09 00:39:49;;;;;;;11.30;4.53;;;13.40;1.00;;;;;;5034369;28;20198;-83
2022/05/09 00:42:15;;;;;;;13.10;4.60;;;13.40;1.00;;;;;;5034360;28;20228;-84
2022/05/09 00:44:41;;;;;;;8.57;4.03;;;13.40;1.00;;;;;;5034037;28;20591;-86
2022/05/09 00:47:08;;;;;;;8.13;4.33;;;13.40;1.00;;;;;;5032289;28;20264;-81
2022/05/09 00:49:48;;;;;;;7.83;4.13;;;13.50;1.00;;;;;;5033553;28;20210;-86
2022/05/09 00:52:31;;;;;;;9.10;4.83;;;13.40;1.00;;;;;;5033504;28;20184;-83
2022/05/09 00:55:02;;;;;;;7.73;4.13;;;13.40;1.00;;;;;;5034397;28;20166;-83
2022/05/09 00:57:37;;;;;;;10.43;4.47;;;13.40;1.00;;;;;;5034137;28;20161;-83
2022/05/09 01:00:13;;;;;;;9.77;4.00;;;13.40;1.00;;;;;;5033741;28;20172;-82
2022/05/09 01:02:42;;;;;;;10.17;4.33;;;13.40;1.00;;;;;;5026257;28;20265;-83
2022/05/09 01:05:08;;;;;;;9.53;4.30;;;13.40;1.00;;;;;;5039886;28;20178;-85
2022/05/09 01:07:34;;;;;;;11.33;4.73;;;13.30;1.00;;;;;;5038006;28;20703;-85
2022/05/09 01:10:00;;;;;;;11.90;4.60;;;13.30;1.00;;;;;;5043034;28;20436;-85
2022/05/09 01:12:32;;;;;;;7.93;4.67;;;13.30;1.00;;;;;;5045284;28;20186;-86
2022/05/09 01:15:01;;;;;;;8.57;4.63;;;13.30;1.00;;;;;;5048029;28;20176;-84
2022/05/09 01:17:27;;;;;;;8.03;4.13;;;13.30;1.00;;;;;;5048519;28;20162;-82
2022/05/09 01:19:55;;;;;;;10.53;4.70;;;13.20;1.00;;;;;;5043594;28;20175;-80
2022/05/09 01:22:25;;;;;;;10.00;4.63;;;13.10;4.30;;;;;;5044225;28;20174;-81
2022/05/09 01:24:54;;;;;;;11.27;4.37;;;13.00;4.80;;;;;;5042448;28;20638;-82
2022/05/09 01:27:26;;;;;;;10.37;4.43;;;13.00;6.50;;;;;;5034541;28;20678;-85
2022/05/09 01:30:12;;;;;;;9.50;4.57;;;13.00;6.20;;;;;;5036006;28;20224;-82
2022/05/09 01:32:55;;;;;;;10.20;4.80;;;13.00;2.70;;;;;;5038227;28;20725;-86
2022/05/09 01:35:40;;;;;;;10.07;4.00;;;13.00;7.10;;;;;;5038005;28;20163;-82
2022/05/09 01:38:14;;;;;;;10.27;5.10;;;13.00;3.20;;;;;;5037835;28;20169;-81
2022/05/09 01:40:40;;;;;;;8.00;4.57;;;12.90;5.10;;;;;;5038744;28;20169;-83
2022/05/09 01:43:06;;;;;;;9.17;4.40;;;13.10;3.40;;;;;;5037772;28;20181;-85
2022/05/09 01:45:32;;;;;;;11.43;4.60;;;13.00;1.20;;;;;;5037342;28;20646;-82
2022/05/09 01:50:42;;;;;;;10.47;4.73;;;12.90;6.80;;;;;;5037873;28;20585;-84
2022/05/09 01:53:08;;;;;;;9.30;4.60;;;12.80;9.00;;;;;;5037869;28;20170;-85
2022/05/09 01:55:34;;;;;;;11.13;4.83;;;12.80;9.60;;;;;;5037598;28;20193;-82
2022/05/09 01:57:59;;;;;;;13.07;4.90;;;12.90;9.90;;;;;;5046866;28;20227;-84
2022/05/09 02:00:25;;;;;;;10.57;5.50;;;12.70;12.10;;;;;;5052082;28;20181;-85
2022/05/09 02:02:51;;;;;;;11.43;4.80;;;12.70;16.90;;;;;;5053260;28;20169;-82
2022/05/09 02:05:17;;;;;;;12.37;5.50;;;12.70;16.60;;;;;;5036775;28;20253;-84
2022/05/09 02:07:43;;;;;;;13.33;5.27;;;12.60;16.20;;;;;;5035743;28;20173;-85
2022/05/09 02:10:09;;;;;;;10.30;5.00;;;12.60;16.60;;;;;;5036299;28;20228;-84
2022/05/09 02:12:34;;;;;;;8.67;5.00;;;12.70;14.50;;;;;;5035988;28;20634;-83
2022/05/09 02:15:00;;;;;;;8.77;4.70;;;12.70;16.10;;;;;;5036604;28;20719;-80
2022/05/09 02:17:26;;;;;;;11.40;5.13;;;12.70;16.10;;;;;;5037263;28;20169;-85
2022/05/09 02:19:52;;;;;;;14.90;5.67;;;12.70;13.70;;;;;;5036335;28;20178;-86
2022/05/09 02:22:18;;;;;;;12.97;5.20;;;12.70;11.90;;;;;;5036438;28;20167;-84
2022/05/09 02:24:45;;;;;;;11.83;5.60;;;12.70;13.60;;;;;;5036984;28;20244;-84
2022/05/09 02:27:10;;;;;;;13.23;5.13;;;12.70;12.90;;;;;;5036909;28;20204;-81
2022/05/09 02:29:39;;;;;;;8.20;4.70;;;12.70;14.30;;;;;;5037022;28;20205;-81
2022/05/09 02:32:06;;;;;;;9.77;5.17;;;12.70;15.20;;;;;;5037669;28;20197;-81
2022/05/09 02:34:32;;;;;;;9.30;4.80;;;12.60;15.30;;;;;;5036769;28;20598;-85
2022/05/09 02:36:59;;;;;;;13.93;5.20;;;12.70;12.30;;;;;;5035920;28;20544;-85
2022/05/09 02:39:24;;;;;;;9.03;4.70;;;12.70;10.30;;;;;;5036827;28;20205;-83
2022/05/09 02:41:50;;;;;;;8.50;4.43;;;12.80;7.40;;;;;;5037685;28;20170;-83
2022/05/09 02:44:16;;;;;;;10.07;5.67;;;12.70;3.30;;;;;;5037835;28;20565;-83
2022/05/09 02:46:42;;;;;;;9.97;4.97;;;12.70;6.40;;;;;;5036653;28;20191;-83
2022/05/09 02:49:09;;;;;;;9.37;5.20;;;12.80;4.70;;;;;;5036045;28;20618;-85
2022/05/09 02:51:34;;;;;;;12.23;5.23;;;12.80;1.00;;;;;;5035194;28;20189;-84
2022/05/09 02:54:00;;;;;;;9.33;4.83;;;12.80;1.00;;;;;;5035276;28;20185;-83
2022/05/09 02:56:26;;;;;;;13.70;5.67;;;12.70;1.00;;;;;;5035352;28;20257;-83
2022/05/09 02:58:53;;;;;;;9.63;5.43;;;12.70;1.00;;;;;;5035682;28;20189;-83
2022/05/09 03:01:19;;;;;;;10.93;5.40;;;12.80;1.00;;;;;;5034676;28;20184;-83
2022/05/09 03:06:29;;;;;;;10.07;5.00;;;12.80;1.00;;;;;;5035334;28;20580;-81
2022/05/09 03:08:57;;;;;;;13.40;6.33;;;12.60;1.20;;;;;;5035625;28;20257;-84
2022/05/09 03:11:23;;;;;;;8.93;5.20;;;12.50;7.30;;;;;;5034982;28;20209;-84
2022/05/09 03:13:49;;;;;;;10.13;5.20;;;12.50;9.20;;;;;;5035354;28;20234;-82
2022/05/09 03:16:14;;;;;;;12.67;5.70;;;12.50;7.20;;;;;;5035203;28;20178;-80
2022/05/09 03:18:40;;;;;;;12.87;5.43;;;12.40;9.20;;;;;;5035367;28;20180;-83
2022/05/09 03:21:06;;;;;;;11.17;5.33;;;12.50;11.50;;;;;;5033706;28;20196;-84
2022/05/09 03:23:32;;;;;;;9.67;5.23;;;12.40;12.40;;;;;;5034524;28;20177;-84
2022/05/09 03:25:58;;;;;;;13.70;5.70;;;12.40;9.50;;;;;;5051602;28;20180;-83
2022/05/09 03:28:24;;;;;;;9.37;5.27;;;12.30;12.80;;;;;;5054304;28;20165;-81
2022/05/09 03:30:52;;;;;;;12.60;5.37;;;12.30;15.50;;;;;;5056480;28;20213;-82
2022/05/09 03:33:24;;;;;;;11.17;5.73;;;12.30;15.10;;;;;;5055955;28;20174;-77
2022/05/09 03:35:50;;;;;;;13.10;5.90;;;12.40;13.40;;;;;;5056491;28;20149;-81
2022/05/09 03:38:16;;;;;;;12.67;5.80;;;12.30;12.90;;;;;;5042540;28;20198;-84
2022/05/09 03:40:41;;;;;;;10.40;5.87;;;12.20;17.60;;;;;;5037836;28;20531;-83
2022/05/09 03:43:08;;;;;;;12.33;6.40;;;12.20;18.40;;;;;;5038199;28;20188;-82
2022/05/09 03:45:35;;;;;;;10.27;6.03;;;12.20;18.20;;;;;;5037340;28;20594;-85
2022/05/09 03:48:03;;;;;;;16.80;6.37;;;12.20;19.20;;;;;;5037035;28;20173;-82
2022/05/09 03:50:30;;;;;;;10.90;5.53;;;12.40;22.10;;;;;;5036054;28;20735;-78
2022/05/09 03:52:55;;;;;;;12.40;5.80;;;12.30;21.00;;;;;;5034424;28;20185;-78
2022/05/09 03:55:22;;;;;;;13.60;6.50;;;12.40;16.50;;;;;;5034639;28;20169;-84
2022/05/09 03:57:55;;;;;;;12.13;5.73;;;12.30;13.70;;;;;;5033555;28;20177;-79
2022/05/09 04:00:27;;;;;;;11.97;6.03;;;12.30;15.00;;;;;;5035523;28;20174;-82
2022/05/09 04:02:54;;;;;;;11.67;6.10;;;12.30;15.10;;;;;;5034778;28;20154;-85
2022/05/09 04:05:20;;;;;;;11.17;6.03;;;12.30;13.60;;;;;;5034559;28;20178;-82
2022/05/09 04:07:50;;;;;;;8.77;5.60;;;12.20;17.10;;;;;;5034332;28;20169;-84
2022/05/09 04:10:19;;;;;;;12.67;6.50;;;12.30;10.40;;;;;;5034681;28;20209;-84
2022/05/09 04:12:45;;;;;;;15.57;6.40;;;12.20;16.70;;;;;;5034436;28;20162;-82
2022/05/09 04:17:57;;;;;;;12.37;5.87;;;12.30;13.90;;;;;;5034374;28;20168;-83
2022/05/09 04:20:23;;;;;;;14.00;6.30;;;12.40;10.30;;;;;;5034428;28;20181;-83
2022/05/09 04:22:51;;;;;;;12.00;6.30;;;12.40;8.30;;;;;;5043494;28;20241;-84
2022/05/09 04:25:19;;;;;;;17.17;6.43;;;12.40;5.90;;;;;;5045975;28;20170;-84
2022/05/09 04:27:45;;;;;;;10.10;6.10;;;12.30;10.10;;;;;;5045515;28;20561;-85
2022/05/09 04:30:12;;;;;;;11.17;6.10;;;12.30;8.90;;;;;;5034770;28;20248;-82
2022/05/09 04:32:39;;;;;;;13.07;7.00;;;12.40;7.60;;;;;;5034526;28;20659;-84
2022/05/09 04:35:05;;;;;;;12.77;6.90;;;12.40;9.20;;;;;;5034791;28;20166;-81
2022/05/09 04:37:32;;;;;;;10.00;5.83;;;12.60;11.30;;;;;;5034737;28;20557;-83
2022/05/09 04:39:59;;;;;;;15.63;6.63;;;12.70;2.50;;;;;;5035049;28;20162;-83
2022/05/09 04:42:25;;;;;;;19.47;6.70;;;12.80;1.00;;;;;;5034257;28;20260;-83
2022/05/09 04:44:51;;;;;;;17.53;6.90;;;12.80;1.00;;;;;;5034493;28;20174;-83
2022/05/09 04:47:17;;;;;;;14.20;6.30;;;12.80;1.00;;;;;;5033968;28;20242;-80
2022/05/09 04:49:42;;;;;;;15.70;6.57;;;12.90;1.00;;;;;;5036132;28;20222;-82
2022/05/09 04:52:08;;;;;;;14.03;6.83;;;13.00;1.00;;;;;;5036582;28;20182;-82
2022/05/09 04:54:34;;;;;;;16.60;6.67;;;13.00;1.00;;;;;;5038399;28;20172;-78
2022/05/09 04:56:59;;;;;;;14.23;6.07;;;13.00;1.00;;;;;;5055121;28;20182;-79
2022/05/09 04:59:25;;;;;;;13.63;6.63;;;12.80;1.00;;;;;;5054397;28;20183;-79
2022/05/09 05:01:51;;;;;;;17.57;6.90;;;12.80;1.00;;;;;;5040187;28;20560;-84
2022/05/09 05:04:17;;;;;;;17.67;6.80;;;12.90;1.00;;;;;;5040133;28;20253;-83
2022/05/09 05:06:44;;;;;;;17.07;6.00;;;12.90;1.00;;;;;;5040968;28;20216;-86
2022/05/09 05:09:10;;;;;;;16.17;6.63;;;13.00;1.00;;;;;;5038410;28;20217;-85
2022/05/09 05:11:37;;;;;;;12.33;6.70;;;13.20;1.00;;;;;;5038061;28;20266;-83
2022/05/09 05:14:04;;;;;;;14.33;7.10;;;13.30;1.00;;;;;;5039545;28;20640;-83
2022/05/09 05:19:13;;;;;;;16.80;6.37;;;13.60;1.00;;;;;;5038708;28;20181;-84
2022/05/09 05:21:42;;;;;;;16.13;6.50;;;13.50;1.00;;;;;;5038631;28;20167;-83
2022/05/09 05:24:08;;;;;;;11.97;5.53;;;13.60;1.00;;;;;;5038082;28;20255;-80
2022/05/09 05:26:35;;;;;;;12.43;6.77;;;13.70;1.00;;;;;;5037226;28;20625;-82
2022/05/09 05:29:00;;;;;;;11.50;5.63;;;13.90;1.00;;;;;;5037147;28;20181;-83
2022/05/09 05:31:27;;;;;;;16.43;6.47;;;14.00;1.00;;;;;;5036884;28;20212;-80
2022/05/09 05:33:53;;;;;;;16.13;6.53;;;14.10;1.00;;;;;;5037531;28;20173;-85
2022/05/09 05:36:20;;;;;;;9.73;6.40;;;14.00;1.00;;;;;;5038161;28;20565;-81
2022/05/09 05:38:51;;;;;;;18.70;6.20;;;14.20;1.00;;;;;;5037292;28;20183;-83
2022/05/09 05:41:19;;;;;;;11.67;5.90;;;14.20;1.00;;;;;;5037539;28;20709;-84
2022/05/09 05:43:45;;;;;;;15.53;6.30;;;14.10;1.00;;;;;;5035523;28;20168;-85
2022/05/09 05:46:11;;;;;;;9.83;6.50;;;14.30;1.00;;;;;;5036604;28;20266;-84
2022/05/09 05:48:38;;;;;;;11.40;5.73;;;14.20;1.00;;;;;;5037002;28;20589;-88
2022/05/09 05:51:04;;;;;;;13.50;6.80;;;14.40;1.00;;;;;;5039676;28;20232;-79
2022/05/09 05:53:29;;;;;;;11.33;5.97;;;14.40;1.00;;;;;;5037058;28;20172;-87
2022/05/09 05:55:55;;;;;;;14.07;6.07;;;14.50;1.00;;;;;;5037708;28;20166;-85
2022/05/09 05:58:23;;;;;;;13.83;6.07;;;14.70;1.00;;;;;;5037728;28;20648;-83
2022/05/09 06:00:49;;;;;;;16.87;6.97;;;14.70;1.00;;;;;;5039595;28;20185;-85
2022/05/09 06:03:15;;;;;;;16.40;8.47;;;14.70;1.00;;;;;;5037946;28;20216;-84
2022/05/09 06:05:41;;;;;;;15.37;6.17;;;14.70;1.00;;;;;;5037701;28;20188;-83
2022/05/09 06:08:08;;;;;;;9.20;5.60;;;14.80;1.00;;;;;;5036849;28;20640;-84
2022/05/09 06:10:43;;;;;;;8.90;5.73;;;15.10;1.00;;;;;;5037829;28;20215;-86
2022/05/09 06:13:09;;;;;;;16.73;6.60;;;15.10;99.90;;;;;;5036033;28;20578;-82
2022/05/09 06:15:36;;;;;;;13.63;6.40;;;15.10;99.90;;;;;;5037692;28;20582;-83
2022/05/09 06:18:08;;;;;;;10.20;5.93;;;15.20;99.90;;;;;;5036922;28;20541;-86
2022/05/09 06:20:39;;;;;;;12.33;5.50;;;15.20;99.90;;;;;;5038580;28;20277;-84
2022/05/09 06:23:06;;;;;;;11.10;5.87;;;15.10;99.90;;;;;;5039504;28;20564;-87
2022/05/09 06:25:36;;;;;;;15.23;5.90;;;15.20;99.90;;;;;;5038722;28;20196;-85
2022/05/09 06:28:05;;;;;;;14.27;5.70;;;15.40;99.90;;;;;;5038992;28;20170;-87
2022/05/09 06:30:31;;;;;;;12.03;5.70;;;15.40;99.90;;;;;;5040207;28;20404;-89
2022/05/09 06:32:57;;;;;;;14.73;6.20;;;15.50;99.90;;;;;;5058583;28;20201;-85
2022/05/09 06:35:26;;;;;;;12.90;5.63;;;15.60;99.90;;;;;;5044819;28;20174;-80
2022/05/09 06:37:56;;;;;;;11.23;5.53;;;15.70;99.90;;;;;;5052676;28;20178;-87
2022/05/09 06:40:22;;;;;;;9.67;5.47;;;15.60;99.90;;;;;;5053959;28;20245;-85
2022/05/09 06:42:51;;;;;;;16.13;6.23;;;15.70;99.90;;;;;;5052574;28;20173;-82
2022/05/09 06:45:17;;;;;;;16.23;6.27;;;15.80;99.90;;;;;;5050126;28;20173;-81
2022/05/09 06:47:49;;;;;;;14.80;5.73;;;15.90;91.20;;;;;;5052193;28;20186;-79
2022/05/09 06:50:16;;;;;;;12.37;5.83;;;16.10;1.00;;;;;;5061624;28;20269;-85
2022/05/09 06:52:44;;;;;;;15.23;5.37;;;16.20;1.00;;;;;;5079275;28;20206;-83
2022/05/09 06:55:16;;;;;;;16.43;6.00;;;16.40;1.00;;;;;;5057543;28;20165;-81
2022/05/09 06:57:43;;;;;;;12.87;5.90;;;16.60;99.90;;;;;;5057213;28;20636;-86
2022/05/09 07:00:14;;;;;;;17.80;5.80;;;16.60;1.00;;;;;;5056964;28;20192;-85
2022/05/09 07:02:41;;;;;;;11.93;6.37;;;16.70;99.90;;;;;;5058199;28;20255;-87
2022/05/09 07:05:09;;;;;;;12.77;5.17;;;16.90;99.90;;;;;;5057293;28;20193;-80
2022/05/09 07:07:35;;;;;;;9.40;4.90;;;17.10;1.00;;;;;;5056081;28;20254;-84
2022/05/09 07:10:02;;;;;;;13.90;5.40;;;17.40;66.10;;;;;;5042608;28;20219;-81
2022/05/09 07:12:27;;;;;;;12.80;5.83;;;17.50;1.00;;;;;;5036072;28;20586;-85
2022/05/09 07:14:53;;;;;;;12.20;5.53;;;17.50;1.00;;;;;;5036353;28;20177;-87
2022/05/09 07:17:19;;;;;;;16.87;5.97;;;17.40;1.00;;;;;;5036585;28;20213;-85
2022/05/09 07:19:45;;;;;;;9.50;5.40;;;17.50;99.90;;;;;;5031677;28;20172;-81
2022/05/09 07:22:11;;;;;;;14.77;5.47;;;17.70;1.00;;;;;;5016033;28;20654;-85
2022/05/09 07:24:37;;;;;;;14.07;5.53;;;17.80;99.90;;;;;;5016024;28;20176;-86
2022/05/09 07:27:03;;;;;;;10.43;5.33;;;17.90;88.70;;;;;;5014358;28;20185;-85
2022/05/09 07:29:29;;;;;;;10.20;4.90;;;17.80;1.00;;;;;;5015746;28;20178;-84
2022/05/09 07:31:56;;;;;;;8.23;4.90;;;17.80;1.00;;;;;;5016655;28;20194;-85
2022/05/09 07:34:21;;;;;;;10.40;4.27;;;17.80;1.00;;;;;;5017396;28;20184;-87
2022/05/09 07:36:47;;;;;;;9.00;4.70;;;17.80;1.00;;;;;;5017499;28;20169;-86
2022/05/09 07:39:13;;;;;;;8.20;4.50;;;17.70;1.00;;;;;;5016794;28;20171;-84
2022/05/09 07:41:39;;;;;;;8.73;4.40;;;17.70;99.90;;;;;;5032902;28;20278;-85
2022/05/09 07:44:05;;;;;;;9.93;4.83;;;17.80;99.90;;;;;;5036267;28;20236;-84
2022/05/09 07:46:30;;;;;;;12.40;4.83;;;17.80;1.00;;;;;;5035581;28;20231;-82
2022/05/09 07:49:05;;;;;;;11.83;5.20;;;17.80;99.90;;;;;;5092243;27;20901;-84
2022/05/09 07:51:31;;;;;;;9.97;4.30;;;18.00;99.90;;;;;;5109247;28;20203;-85
2022/05/09 07:53:57;;;;;;;10.90;4.40;;;18.10;99.90;;;;;;5096478;28;20171;-84
2022/05/09 07:56:22;;;;;;;7.70;4.30;;;18.20;99.90;;;;;;5095832;28;20602;-84
2022/05/09 07:58:48;;;;;;;7.60;3.57;;;18.30;99.90;;;;;;5093835;28;20179;-85
2022/05/09 08:01:15;;;;;;;7.63;3.20;;;18.40;99.90;;;;;;5092182;28;20183;-84
2022/05/09 08:03:42;;;;;;;7.00;3.17;;;18.40;1.00;;;;;;5090148;28;20178;-83
2022/05/09 08:06:08;;;;;;;6.10;2.97;;;18.40;1.00;;;;;;5089072;28;20203;-82
2022/05/09 08:08:40;;;;;;;7.57;3.33;;;18.40;99.90;;;;;;5089663;28;20566;-81
2022/05/09 08:11:06;;;;;;;6.00;3.40;;;18.50;1.00;;;;;;5089830;28;20226;-79
2022/05/09 08:13:34;;;;;;;7.50;3.27;;;18.50;99.90;;;;;;5090069;28;20175;-80
2022/05/09 08:16:03;;;;;;;6.20;2.97;;;18.60;99.90;;;;;;5089980;28;20631;-80
2022/05/09 08:18:31;;;;;;;7.67;2.80;;;18.60;99.90;;;;;;5089987;28;20195;-82
2022/05/09 08:20:59;;;;;;;6.93;2.50;;;18.70;1.00;;;;;;5100310;28;20180;-80
2022/05/09 08:23:26;;;;;;;8.43;2.60;;;18.70;1.00;;;;;;5110058;28;20172;-79
2022/05/09 08:25:52;;;;;;;6.83;2.40;;;18.70;25.30;;;;;;5110448;28;20172;-80
2022/05/09 08:28:18;;;;;;;7.77;2.40;;;18.60;1.00;;;;;;5092079;28;20212;-77
2022/05/09 08:30:47;;;;;;;8.17;2.57;;;18.60;99.90;;;;;;5105368;28;20176;-82
2022/05/09 08:33:15;;;;;;;5.70;2.50;;;18.90;1.00;;;;;;5098988;28;20627;-80
2022/05/09 08:35:46;;;;;;;4.07;2.50;;;19.00;99.90;;;;;;5097911;28;20503;-78
2022/05/09 08:38:15;;;;;;;5.87;2.67;;;19.00;1.00;;;;;;5094065;28;20527;-78
2022/05/09 08:41:13;;;;;;;7.73;2.37;;;19.00;99.90;;;;;;5090809;28;20303;-80
2022/05/09 08:44:07;;;;;;;6.43;3.67;;;19.00;99.90;;;;;;5090196;28;20173;-79
2022/05/09 08:46:43;;;;;;;4.87;2.40;;;19.10;99.90;;;;;;5089582;28;20259;-81
2022/05/09 08:49:15;;;;;;;6.83;2.60;;;19.10;99.90;;;;;;5088574;28;20198;-80
2022/05/09 08:52:31;;;;;;;6.97;2.53;;;19.20;99.90;;;;;;5091109;28;20633;-84
2022/05/09 08:54:57;;;;;;;7.93;3.53;;;19.30;1.00;;;;;;5090154;28;20190;-83
2022/05/09 08:57:47;;;;;;;10.67;2.90;;;19.40;99.90;;;;;;5088078;28;20177;-83
2022/05/09 09:00:17;;;;;;;6.37;2.30;;;19.30;99.90;;;;;;5076321;28;20177;-85
2022/05/09 09:03:20;;;;;;;7.00;2.40;;;19.30;99.90;;;;;;5057810;28;20248;-83
2022/05/09 09:05:50;;;;;;;7.87;2.30;;;19.40;99.90;;;;;;5078681;28;20185;-83
2022/05/09 09:08:40;;;;;;;5.67;2.27;;;19.50;88.30;;;;;;5081559;28;20214;-85
2022/05/09 09:11:22;;;;;;;7.93;1.93;;;19.70;1.00;;;;;;5079590;28;20178;-79
2022/05/09 09:14:18;;;;;;;5.30;2.07;;;19.90;1.00;;;;;;5078987;28;20648;-83
2022/05/09 09:16:53;;;;;;;5.27;1.90;;;19.90;1.00;;;;;;5067000;28;20176;-80
2022/05/09 09:19:55;;;;;;;11.77;2.67;;;19.70;1.00;;;;;;5058131;28;20162;-82
2022/05/09 09:22:50;;;;;;;4.57;2.20;;;19.80;1.00;;;;;;5056061;28;20166;-82
2022/05/09 09:25:26;;;;;;;4.43;2.10;;;19.90;99.90;;;;;;5055544;28;20203;-82
2022/05/09 09:28:13;;;;;;;3.60;1.80;;;19.90;99.90;;;;;;5055702;28;20282;-82
2022/05/09 09:30:41;;;;;;;4.27;1.60;;;19.90;99.90;;;;;;5056428;28;20261;-83
2022/05/09 09:33:10;;;;;;;6.23;2.40;;;20.00;99.90;;;;;;5058013;28;20179;-83
2022/05/09 09:35:42;;;;;;;5.67;2.13;;;19.90;99.90;;;;;;5057158;28;20171;-84
2022/05/09 09:38:29;;;;;;;8.33;2.47;;;20.00;99.90;;;;;;5071952;28;20174;-81
2022/05/09 09:40:55;;;;;;;12.77;2.40;;;20.10;99.90;;;;;;5084171;28;20166;-83
2022/05/09 09:43:21;;;;;;;5.00;1.80;;;20.00;99.90;;;;;;5084533;28;20177;-80
2022/05/09 09:46:02;;;;;;;6.57;2.00;;;20.00;99.90;;;;;;5080498;28;20249;-83
2022/05/09 09:48:30;;;;;;;5.40;1.60;;;19.90;99.90;;;;;;5076377;28;20673;-83
2022/05/09 09:51:10;;;;;;;8.03;2.20;;;20.00;99.90;;;;;;5077266;28;20177;-81
2022/05/09 09:53:50;;;;;;;8.37;1.93;;;20.40;99.90;;;;;;5067403;28;20185;-82
2022/05/09 09:56:20;;;;;;;4.60;1.83;;;20.60;99.90;;;;;;5075170;28;20247;-79
2022/05/09 09:58:47;;;;;;;5.63;1.83;;;20.60;99.90;;;;;;5075237;28;20179;-79
2022/05/09 10:01:25;;;;;;;7.43;2.20;;;20.60;99.90;;;;;;5074589;28;20182;-78
2022/05/09 10:04:08;;;;;;;5.17;1.90;;;20.70;99.90;;;;;;5074659;28;20160;-79
2022/05/09 10:06:35;;;;;;;7.87;2.17;;;20.60;99.90;;;;;;5074560;28;20177;-79
2022/05/09 10:09:06;;;;;;;4.03;2.10;;;20.60;99.90;;;;;;5074816;28;20243;-77
2022/05/09 10:11:33;;;;;;;6.03;2.50;;;20.80;99.90;;;;;;5083433;28;20304;-85
2022/05/09 10:14:03;;;;;;;5.57;2.27;;;21.00;99.90;;;;;;5083438;28;20190;-84
2022/05/09 10:16:35;;;;;;;7.63;2.53;;;20.90;99.90;;;;;;5077363;28;20172;-84
2022/05/09 10:19:09;;;;;;;7.17;2.10;;;20.90;99.90;;;;;;5077559;28;20395;-85
2022/05/09 10:24:47;;;;;;;7.30;3.90;;;21.20;99.90;;;;;;5076394;28;20181;-84
2022/05/09 10:27:30;;;;;;;6.93;2.90;;;21.40;99.90;;;;;;5076173;28;20201;-85
2022/05/09 10:30:00;;;;;;;7.40;2.50;;;21.40;99.90;;;;;;5075648;28;20686;-83
2022/05/09 10:32:36;;;;;;;4.00;2.17;;;21.60;99.90;;;;;;5075964;28;20205;-84
2022/05/09 10:35:10;;;;;;;7.63;2.50;;;21.80;99.90;;;;;;5075208;28;20253;-84
2022/05/09 10:37:42;;;;;;;6.70;2.73;;;21.80;99.90;;;;;;5075832;28;20175;-84
2022/05/09 10:40:15;;;;;;;6.47;2.50;;;21.90;99.90;;;;;;5076364;28;20178;-82
2022/05/09 10:42:48;;;;;;;5.20;2.90;;;22.20;99.90;;;;;;5076324;28;20155;-83
2022/05/09 10:45:21;;;;;;;5.33;2.87;;;22.40;99.90;;;;;;5075819;28;20170;-84
2022/05/09 10:47:53;;;;;;;5.33;2.63;;;22.70;99.90;;;;;;5075141;28;20242;-82
2022/05/09 10:50:41;;;;;;;4.23;2.03;;;23.00;99.90;;;;;;5074562;28;20176;-84
2022/05/09 10:53:28;;;;;;;5.97;2.47;;;23.00;92.40;;;;;;5055018;28;20194;-84
2022/05/09 10:56:03;;;;;;;6.33;2.60;;;23.10;62.70;;;;;;5054853;28;20169;-85
2022/05/09 10:58:43;;;;;;;5.80;2.73;;;22.30;99.90;;;;;;5054447;28;20168;-85
2022/05/09 11:01:43;;;;;;;7.00;2.77;;;22.20;99.90;;;;;;5053880;28;20699;-82
2022/05/09 11:04:10;;;;;;;5.23;2.70;;;22.30;99.90;;;;;;5053966;28;20187;-83
2022/05/09 11:06:44;;;;;;;7.20;3.27;;;22.40;99.90;;;;;;5054916;28;20657;-81
2022/05/09 11:09:22;;;;;;;6.87;3.20;;;22.60;99.90;;;;;;5053805;28;20269;-84
2022/05/09 11:12:07;;;;;;;9.50;3.37;;;22.40;99.90;;;;;;5053754;28;20244;-82
2022/05/09 11:15:29;;;;;;;9.23;3.63;;;22.80;99.90;;;;;;5055513;28;20628;-83
2022/05/09 11:18:00;;;;;;;9.67;4.00;;;23.20;99.90;;;;;;5053811;28;20211;-84
2022/05/09 11:20:35;;;;;;;5.90;3.30;;;23.40;99.90;;;;;;5064226;28;20184;-82
2022/05/09 11:23:04;;;;;;;6.63;3.87;;;23.60;99.90;;;;;;5063049;28;20167;-82
2022/05/09 11:25:49;;;;;;;7.70;3.57;;;23.90;99.90;;;;;;5069456;28;20168;-79
2022/05/09 11:28:14;;;;;;;6.77;3.97;;;24.10;86.00;;;;;;5069065;28;20219;-89
2022/05/09 11:30:50;;;;;;;7.20;3.73;;;24.10;94.20;;;;;;5073175;28;20184;-85
2022/05/09 11:33:46;;;;;;;6.03;3.40;;;24.10;64.40;;;;;;5066398;28;20207;-85
2022/05/09 11:36:28;;;;;;;5.70;3.57;;;24.20;51.90;;;;;;5074074;28;20536;-79
2022/05/09 11:38:59;;;;;;;6.77;4.30;;;23.80;97.10;;;;;;5066226;28;20182;-78
2022/05/09 11:41:29;;;;;;;7.03;4.10;;;23.90;89.10;;;;;;5087247;28;20173;-85
2022/05/09 11:44:17;;;;;;;6.70;4.07;;;23.60;98.10;;;;;;5080655;28;20770;-85
2022/05/09 11:47:02;;;;;;;10.60;4.07;;;23.90;94.40;;;;;;5074781;28;20263;-86
2022/05/09 11:49:56;;;;;;;7.17;4.03;;;23.90;91.20;;;;;;5054306;28;20191;-85
2022/05/09 11:52:33;;;;;;;8.93;3.53;;;24.20;66.30;;;;;;5055192;28;20205;-85
2022/05/09 11:55:14;;;;;;;15.53;5.17;;;24.40;92.50;;;;;;5060580;28;20263;-81
2022/05/09 11:57:43;;;;;;;8.67;4.20;;;24.50;99.90;;;;;;5053119;28;20239;-80
2022/05/09 12:00:31;;;;;;;9.00;4.87;;;24.70;99.90;;;;;;5071883;28;20184;-82
2022/05/09 12:03:02;;;;;;;7.77;4.30;;;24.70;99.90;;;;;;5081085;28;20206;-78
2022/05/09 12:05:29;;;;;;;7.20;4.13;;;24.60;99.90;;;;;;5080456;28;20160;-86
2022/05/09 12:08:18;;;;;;;12.53;5.00;;;24.70;99.90;;;;;;5074195;28;20200;-82
2022/05/09 12:10:47;;;;;;;8.20;4.47;;;24.90;99.90;;;;;;5075710;28;20165;-86
2022/05/09 12:13:35;;;;;;;5.27;3.83;;;25.00;98.20;;;;;;5073745;28;20169;-85
2022/05/09 12:16:01;;;;;;;7.73;4.50;;;25.00;97.40;;;;;;5076761;28;20176;-86
2022/05/09 12:18:53;;;;;;;10.50;5.90;;;25.10;99.90;;;;;;5075964;28;20207;-85
2022/05/09 12:21:21;;;;;;;7.50;4.57;;;25.30;67.00;;;;;;5082163;28;20189;-84
2022/05/09 12:23:50;;;;;;;7.97;5.00;;;25.10;79.60;;;;;;5085093;28;20179;-84
2022/05/09 12:26:31;;;;;;;11.33;5.10;;;24.50;99.90;;;;;;5090254;28;20160;-87
2022/05/09 12:29:18;;;;;;;7.60;4.73;;;24.30;99.90;;;;;;5084049;28;20228;-87
2022/05/09 12:31:49;;;;;;;10.30;4.40;;;24.50;99.90;;;;;;5094062;28;20172;-80
2022/05/09 12:34:38;;;;;;;7.57;4.70;;;24.60;99.90;;;;;;5097877;28;20313;-82
2022/05/09 12:37:06;;;;;;;8.30;4.77;;;24.60;99.90;;;;;;5105169;28;20219;-79
2022/05/09 12:39:49;;;;;;;7.30;4.80;;;24.70;99.90;;;;;;5099758;28;20156;-78
2022/05/09 12:42:46;;;;;;;5.80;4.47;;;24.40;99.90;;;;;;5091885;28;20248;-81
2022/05/09 12:45:14;;;;;;;13.57;5.60;;;24.60;99.90;;;;;;5088625;28;20152;-81
2022/05/09 12:47:43;;;;;;;8.77;5.20;;;24.60;99.90;;;;;;5078169;28;20200;-84
2022/05/09 12:50:25;;;;;;;16.97;7.27;;;24.70;99.90;;;;;;5077697;28;20283;-83
2022/05/09 12:52:57;;;;;;;8.00;5.03;;;25.00;99.90;;;;;;5077922;28;20204;-85
2022/05/09 12:55:53;;;;;;;7.77;5.17;;;25.10;99.90;;;;;;5077767;28;20160;-85
2022/05/09 12:58:32;;;;;;;8.33;5.23;;;24.80;99.90;;;;;;5076723;28;20196;-86
2022/05/09 13:01:13;;;;;;;7.87;5.70;;;24.90;99.90;;;;;;5077979;28;20160;-85
2022/05/09 13:03:52;;;;;;;9.73;8.33;;;24.80;99.90;;;;;;5076190;28;20202;-83
2022/05/09 13:06:27;;;;;;;7.43;5.30;;;24.50;99.90;;;;;;5076538;28;20157;-84
2022/05/09 13:08:53;;;;;;;9.13;5.70;;;24.60;99.90;;;;;;5076741;28;20286;-80
2022/05/09 13:11:23;;;;;;;9.23;5.47;;;25.00;99.90;;;;;;5076946;28;20197;-85
2022/05/09 13:14:11;;;;;;;17.80;6.90;;;25.00;99.90;;;;;;5076890;28;20200;-86
2022/05/09 13:17:15;;;;;;;8.87;6.27;;;25.00;99.90;;;;;;5076944;28;20218;-86
2022/05/09 13:19:49;;;;;;;9.60;5.83;;;25.10;99.90;;;;;;5077179;28;20198;-84